LBSF Airport Information

Runway Information
Runway 09 Length 9186 ft width 147 ft
Elevation 1739 ft Threshold 0 ft Heading 95
Runway 27 Length 9186 ft Width 147 ft
Elevation 1742 ft Threshold 0 ft Heading 275
Airport Frequencies
Type APP Name APP Frequency 123.7 MHZ
Type ATIS Name ATIS Frequency 124.05 MHZ
Type TWR Name TWR Frequency 118.1 MHZ
Airport Navaids
Type NDB Name Bozhourishte Frequency 312 KHZ
Type NDB Name Sofia Frequency 375 KHZ
Type NDB Name Sofia Frequency 335 KHZ
Type NDB Name Sofia Frequency 529 KHZ
Type VOR-DME Name Sofia Frequency 112600 KHZ
Type NDB Name Sofia Frequency 350 KHZ
Airport Weather Information & NOTAM
ADDS - METARS form results

(1439 UTC 22 July 2018)
 
METAR text: LBSF 221430Z 20004KT 170V250 9999 FEW035TCU SCT065 28/17 Q1009 TEMPO FEW040CB
Conditions at: LBSF (SOFIA , BG) observed 1430 UTC 22 July 2018
Temperature: 28.0°C (82°F)
Dewpoint: 17.0°C (63°F) [RH = 51%]
Pressure (altimeter): 29.79 inches Hg (1009.0 mb)
Winds: from the SSW (200 degrees) at 5 MPH (4 knots; 2.1 m/s)
Visibility: 6 or more miles (10+ km)
Ceiling: at least 12,000 feet AGL
Clouds: few clouds at 3500 feet AGL
scattered clouds at 6500 feet AGL
Weather: no significant weather observed at this time

METAR text: LBSF 221400Z 28003KT 250V330 9999 FEW035CB SCT060 29/17 Q1009 RETS TEMPO TSRA FEW040CB
Conditions at: LBSF (SOFIA , BG) observed 1400 UTC 22 July 2018
Temperature: 29.0°C (84°F)
Dewpoint: 17.0°C (63°F) [RH = 48%]
Pressure (altimeter): 29.79 inches Hg (1009.0 mb)
Winds: from the W (280 degrees) at 3 MPH (3 knots; 1.6 m/s)
Visibility: 6 or more miles (10+ km)
Ceiling: at least 12,000 feet AGL
Clouds: few clouds at 3500 feet AGL
scattered clouds at 6000 feet AGL
Weather: no significant weather observed at this time